createdAt,value
2017-09-04T00:02:11.823Z,8.80
2017-09-04T00:04:40.152Z,8.80
2017-09-04T00:07:08.456Z,8.70
2017-09-04T00:09:36.799Z,8.70
2017-09-04T00:12:05.111Z,8.70
2017-09-04T00:14:33.418Z,8.70
2017-09-04T00:17:01.751Z,8.60
2017-09-04T00:19:30.066Z,8.70
2017-09-04T00:21:58.399Z,8.70
2017-09-04T00:24:26.712Z,8.70
2017-09-04T00:26:55.039Z,8.70
2017-09-04T00:29:23.352Z,8.60
2017-09-04T00:31:51.683Z,8.60
2017-09-04T00:34:19.992Z,8.60
2017-09-04T00:36:48.345Z,8.60
2017-09-04T00:39:16.650Z,8.60
2017-09-04T00:41:44.970Z,8.60
2017-09-04T00:44:13.315Z,8.60
2017-09-04T00:46:41.635Z,8.60
2017-09-04T00:49:09.972Z,8.60
2017-09-04T00:51:38.283Z,8.60
2017-09-04T00:54:06.622Z,8.50
2017-09-04T00:56:34.927Z,8.50
2017-09-04T00:59:03.257Z,8.50
2017-09-04T01:01:31.563Z,8.40
2017-09-04T01:03:59.135Z,8.40
2017-09-04T01:06:27.478Z,8.40
2017-09-04T01:08:55.790Z,8.50
2017-09-04T01:11:24.116Z,8.40
2017-09-04T01:13:52.419Z,8.40
2017-09-04T01:16:20.754Z,8.30
2017-09-04T01:18:49.059Z,8.30
2017-09-04T01:21:17.394Z,8.30
2017-09-04T01:23:45.695Z,8.30
2017-09-04T01:26:14.028Z,8.30
2017-09-04T01:28:42.339Z,8.40
2017-09-04T01:31:10.683Z,8.30
2017-09-04T01:33:39.004Z,8.30
2017-09-04T01:36:07.320Z,8.30
2017-09-04T01:38:35.650Z,8.30
2017-09-04T01:41:03.968Z,8.30
2017-09-04T01:43:32.300Z,8.30
2017-09-04T01:46:00.604Z,8.30
2017-09-04T01:48:28.936Z,8.30
2017-09-04T01:50:57.252Z,8.30
2017-09-04T01:53:25.588Z,8.30
2017-09-04T01:55:53.913Z,8.30
2017-09-04T01:58:22.236Z,8.30
2017-09-04T02:00:50.543Z,8.30
2017-09-04T02:03:18.892Z,8.30
2017-09-04T02:05:47.204Z,8.30
2017-09-04T02:08:15.525Z,8.30
2017-09-04T02:10:43.851Z,8.30
2017-09-04T02:13:12.175Z,8.20
2017-09-04T02:15:40.520Z,8.20
2017-09-04T02:18:08.832Z,8.20
2017-09-04T02:20:37.168Z,8.20
2017-09-04T02:23:05.480Z,8.20
2017-09-04T02:25:33.816Z,8.20
2017-09-04T02:28:02.129Z,8.20
2017-09-04T02:30:30.461Z,8.10
2017-09-04T02:32:58.772Z,8.10
2017-09-04T02:35:27.112Z,8.10
2017-09-04T02:37:55.426Z,8.10
2017-09-04T02:40:23.743Z,8.10
2017-09-04T02:42:52.071Z,8.10
2017-09-04T02:45:20.384Z,8.10
2017-09-04T02:47:48.751Z,8.00
2017-09-04T02:50:17.062Z,8.00
2017-09-04T02:52:45.407Z,8.00
2017-09-04T02:55:13.728Z,8.00
2017-09-04T02:57:42.063Z,8.00
2017-09-04T03:00:10.380Z,8.00
2017-09-04T03:02:38.716Z,8.00
2017-09-04T03:05:07.029Z,8.00
2017-09-04T03:07:35.387Z,8.00
2017-09-04T03:10:03.712Z,7.90
2017-09-04T03:12:32.039Z,7.90
2017-09-04T03:15:00.379Z,7.90
2017-09-04T03:17:28.692Z,7.90
2017-09-04T03:19:57.035Z,7.80
2017-09-04T03:22:25.344Z,7.80
2017-09-04T03:24:53.680Z,7.80
2017-09-04T03:27:21.996Z,7.80
2017-09-04T03:29:50.348Z,7.80
2017-09-04T03:32:18.682Z,7.80
2017-09-04T03:34:47.019Z,7.80
2017-09-04T03:37:15.341Z,7.70
2017-09-04T03:39:43.687Z,7.80
2017-09-04T03:42:12.003Z,7.70
2017-09-04T03:44:40.324Z,7.70
2017-09-04T03:47:08.663Z,7.70
2017-09-04T03:49:36.988Z,7.70
2017-09-04T03:52:05.323Z,7.70
2017-09-04T03:54:33.652Z,7.70
2017-09-04T03:57:01.989Z,7.60
2017-09-04T03:59:30.309Z,7.60
2017-09-04T04:01:58.651Z,7.60
2017-09-04T04:04:26.971Z,7.70
2017-09-04T04:06:55.325Z,7.70
2017-09-04T04:09:23.639Z,7.70
2017-09-04T04:11:51.220Z,7.70
2017-09-04T04:14:19.532Z,7.70
2017-09-04T04:16:47.845Z,7.70
2017-09-04T04:19:16.187Z,7.80
2017-09-04T04:21:44.513Z,7.80
2017-09-04T04:24:12.860Z,7.80
2017-09-04T04:26:41.200Z,7.80
2017-09-04T04:29:09.547Z,7.90
2017-09-04T04:31:37.863Z,7.90
2017-09-04T04:34:06.207Z,7.90
2017-09-04T04:36:34.544Z,8.00
2017-09-04T04:39:02.889Z,8.00
2017-09-04T04:41:31.218Z,8.00
2017-09-04T04:43:59.555Z,8.00
2017-09-04T04:46:27.876Z,8.10
2017-09-04T04:48:56.225Z,8.10
2017-09-04T04:51:24.549Z,8.10
2017-09-04T04:53:52.959Z,8.10
2017-09-04T04:56:21.279Z,8.20
2017-09-04T04:58:49.593Z,8.20
2017-09-04T05:01:17.937Z,8.20
2017-09-04T05:03:46.257Z,8.30
2017-09-04T05:06:14.607Z,8.30
2017-09-04T05:08:42.924Z,8.40
2017-09-04T05:11:11.263Z,8.40
2017-09-04T05:13:39.577Z,8.50
2017-09-04T05:16:07.919Z,8.50
2017-09-04T05:18:36.243Z,8.50
2017-09-04T05:21:04.580Z,8.50
2017-09-04T05:23:32.899Z,8.50
2017-09-04T05:26:01.236Z,8.60
2017-09-04T05:28:29.548Z,8.60
2017-09-04T05:30:57.885Z,8.70
2017-09-04T05:33:26.203Z,8.80
2017-09-04T05:35:54.547Z,8.90
2017-09-04T05:38:22.869Z,8.90
2017-09-04T05:40:51.183Z,9.00
2017-09-04T05:43:19.525Z,9.10
2017-09-04T05:45:47.849Z,9.20
2017-09-04T05:48:16.193Z,9.30
2017-09-04T05:50:44.516Z,9.40
2017-09-04T05:53:12.851Z,9.50
2017-09-04T05:55:41.170Z,9.60
2017-09-04T05:58:09.514Z,9.70
2017-09-04T06:00:37.832Z,9.80
2017-09-04T06:03:06.191Z,9.80
2017-09-04T06:05:34.512Z,9.90
2017-09-04T06:08:02.835Z,10.00
2017-09-04T06:10:31.191Z,10.10
2017-09-04T06:12:59.514Z,10.20
2017-09-04T06:15:27.861Z,10.30
2017-09-04T06:17:56.183Z,10.40
2017-09-04T06:20:24.531Z,10.50
2017-09-04T06:22:52.852Z,10.70
2017-09-04T06:25:20.411Z,10.60
2017-09-04T06:27:48.750Z,10.90
2017-09-04T06:30:17.080Z,11.00
2017-09-04T06:32:45.451Z,11.10
2017-09-04T06:35:13.767Z,11.20
2017-09-04T06:37:42.111Z,11.30
2017-09-04T06:40:10.432Z,11.40
2017-09-04T06:42:38.780Z,11.50
2017-09-04T06:45:07.103Z,11.60
2017-09-04T06:47:35.456Z,11.70
2017-09-04T06:50:03.798Z,11.80
2017-09-04T06:52:32.119Z,12.00
2017-09-04T06:55:00.465Z,12.20
2017-09-04T06:57:28.779Z,12.30
2017-09-04T06:59:57.120Z,12.50
2017-09-04T07:02:25.435Z,12.60
2017-09-04T07:04:53.776Z,12.80
2017-09-04T07:07:22.096Z,12.90
2017-09-04T07:09:50.460Z,13.00
2017-09-04T07:12:18.779Z,13.10
2017-09-04T07:14:47.100Z,13.20
2017-09-04T07:17:15.443Z,13.40
2017-09-04T07:19:43.764Z,13.70
2017-09-04T07:22:12.099Z,13.90
2017-09-04T07:24:40.419Z,14.20
2017-09-04T07:27:08.775Z,14.60
2017-09-04T07:29:37.094Z,15.10
2017-09-04T07:32:05.437Z,15.40
2017-09-04T07:34:33.763Z,15.70
2017-09-04T07:37:02.124Z,15.90
2017-09-04T07:39:30.444Z,16.10
2017-09-04T07:41:58.756Z,16.40
2017-09-04T07:44:27.091Z,16.70
2017-09-04T07:46:55.412Z,17.10
2017-09-04T07:49:23.747Z,17.60
2017-09-04T07:51:52.064Z,17.80
2017-09-04T07:54:20.399Z,17.90
2017-09-04T07:56:48.716Z,17.90
2017-09-04T07:59:17.050Z,17.80
2017-09-04T08:01:45.367Z,17.80
2017-09-04T08:04:13.695Z,17.90
2017-09-04T08:06:42.004Z,18.20
2017-09-04T08:09:10.339Z,18.60
2017-09-04T08:11:38.668Z,18.80
2017-09-04T08:14:06.976Z,18.90
2017-09-04T08:16:35.300Z,18.80
2017-09-04T08:19:03.604Z,18.70
2017-09-04T08:21:31.943Z,18.50
2017-09-04T08:24:00.251Z,18.30
2017-09-04T08:26:28.604Z,18.30
2017-09-04T08:28:56.924Z,18.20
2017-09-04T08:31:25.261Z,18.10
2017-09-04T08:33:53.572Z,18.10
2017-09-04T08:36:21.903Z,18.20
2017-09-04T08:38:50.211Z,18.20
2017-09-04T08:41:18.563Z,18.20
2017-09-04T08:43:46.867Z,18.20
2017-09-04T08:46:15.195Z,18.30
2017-09-04T08:48:43.696Z,18.40
2017-09-04T08:51:12.008Z,18.40
2017-09-04T08:53:40.342Z,18.50
2017-09-04T08:56:08.654Z,18.70
2017-09-04T08:58:36.997Z,18.80
2017-09-04T09:01:05.315Z,19.10
2017-09-04T09:03:33.644Z,19.20
2017-09-04T09:06:01.989Z,19.30
2017-09-04T09:08:30.305Z,19.40
2017-09-04T09:10:58.612Z,19.50
2017-09-04T09:13:26.963Z,19.60
2017-09-04T09:15:55.271Z,19.60
2017-09-04T09:18:23.576Z,19.60
2017-09-04T09:20:51.920Z,19.60
2017-09-04T09:23:20.231Z,19.60
2017-09-04T09:25:48.568Z,19.60
2017-09-04T09:28:16.888Z,19.70
2017-09-04T09:30:45.229Z,19.70
2017-09-04T09:33:13.540Z,19.80
2017-09-04T09:35:41.872Z,19.90
2017-09-04T09:38:10.184Z,19.90
2017-09-04T09:40:37.752Z,19.90
2017-09-04T09:43:06.060Z,20.20
2017-09-04T09:45:34.376Z,20.30
2017-09-04T09:48:02.711Z,20.30
2017-09-04T09:50:31.031Z,20.40
2017-09-04T09:52:59.367Z,20.50
2017-09-04T09:55:27.684Z,20.60
2017-09-04T09:57:56.017Z,20.80
2017-09-04T10:00:24.342Z,20.90
2017-09-04T10:02:52.681Z,21.00
2017-09-04T10:05:21.000Z,21.00
2017-09-04T10:07:49.309Z,21.10
2017-09-04T10:10:17.648Z,21.20
2017-09-04T10:12:45.962Z,21.30
2017-09-04T10:15:14.296Z,21.30
2017-09-04T10:17:42.608Z,21.40
2017-09-04T10:20:10.945Z,21.30
2017-09-04T10:22:39.257Z,21.20
2017-09-04T10:25:07.592Z,21.10
2017-09-04T10:27:35.914Z,21.10
2017-09-04T10:30:04.252Z,21.20
2017-09-04T10:32:32.579Z,21.20
2017-09-04T10:35:00.891Z,21.20
2017-09-04T10:37:29.236Z,21.10
2017-09-04T10:39:57.577Z,21.10
2017-09-04T10:42:25.960Z,21.10
2017-09-04T10:44:54.285Z,21.00
2017-09-04T10:47:22.615Z,20.90
2017-09-04T10:49:50.943Z,21.00
2017-09-04T10:52:19.271Z,21.10
2017-09-04T10:54:47.619Z,21.10
2017-09-04T10:57:15.975Z,21.20
2017-09-04T10:59:44.291Z,21.40
2017-09-04T11:02:12.652Z,21.60
2017-09-04T11:04:40.961Z,21.80
2017-09-04T11:07:09.273Z,21.80
2017-09-04T11:09:37.611Z,22.00
2017-09-04T11:12:05.958Z,22.00
2017-09-04T11:14:34.296Z,21.90
2017-09-04T11:17:02.615Z,21.80
2017-09-04T11:19:30.953Z,21.70
2017-09-04T11:21:59.263Z,21.70
2017-09-04T11:24:27.596Z,21.60
2017-09-04T11:26:55.923Z,21.50
2017-09-04T11:29:24.259Z,21.40
2017-09-04T11:31:52.572Z,21.30
2017-09-04T11:34:20.903Z,21.30
2017-09-04T11:36:49.216Z,21.40
2017-09-04T11:39:17.554Z,21.30
2017-09-04T11:41:45.861Z,21.20
2017-09-04T11:44:14.200Z,21.30
2017-09-04T11:46:42.962Z,21.50
2017-09-04T11:49:11.280Z,21.70
2017-09-04T11:51:39.617Z,21.90
2017-09-04T11:54:07.938Z,22.00
2017-09-04T11:56:36.267Z,22.30
2017-09-04T11:59:04.581Z,22.40
2017-09-04T12:01:32.907Z,22.70
2017-09-04T12:04:01.220Z,22.90
2017-09-04T12:06:29.555Z,23.10
2017-09-04T12:08:57.867Z,23.40
2017-09-04T12:11:26.187Z,23.70
2017-09-04T12:13:54.539Z,23.90
2017-09-04T12:16:22.855Z,24.00
2017-09-04T12:18:51.190Z,24.20
2017-09-04T12:21:19.495Z,24.40
2017-09-04T12:23:47.835Z,24.50
2017-09-04T12:26:16.139Z,24.20
2017-09-04T12:28:44.492Z,24.10
2017-09-04T12:31:12.820Z,24.00
2017-09-04T12:33:41.132Z,23.90
2017-09-04T12:36:09.473Z,23.70
2017-09-04T12:38:37.785Z,23.20
2017-09-04T12:41:06.119Z,23.20
2017-09-04T12:43:34.440Z,23.10
2017-09-04T12:46:02.771Z,23.00
2017-09-04T12:48:31.076Z,23.00
2017-09-04T12:50:59.408Z,22.80
2017-09-04T12:53:27.720Z,22.70
2017-09-04T12:55:56.056Z,22.40
2017-09-04T12:58:24.380Z,22.20
2017-09-04T13:00:52.720Z,22.10
2017-09-04T13:03:21.032Z,21.80
2017-09-04T13:05:49.352Z,21.70
2017-09-04T13:08:17.700Z,21.50
2017-09-04T13:11:06.087Z,21.50
2017-09-04T13:13:52.132Z,21.40
2017-09-04T13:16:36.304Z,21.30
2017-09-04T13:19:10.352Z,21.20
2017-09-04T13:21:53.607Z,21.00
2017-09-04T13:24:40.628Z,21.00
2017-09-04T13:27:14.589Z,21.00
2017-09-04T13:29:47.399Z,21.10
2017-09-04T13:32:21.431Z,21.10
2017-09-04T13:34:55.331Z,21.10
2017-09-04T13:37:39.383Z,21.00
2017-09-04T13:40:13.464Z,20.90
2017-09-04T13:42:42.595Z,20.80
2017-09-04T13:45:25.836Z,20.70
2017-09-04T13:47:59.762Z,20.60
2017-09-04T13:50:33.880Z,20.40
2017-09-04T13:53:17.089Z,20.30
2017-09-04T13:55:50.936Z,20.30
2017-09-04T13:58:21.787Z,20.20
2017-09-04T14:01:04.759Z,20.10
2017-09-04T14:03:38.716Z,20.10
2017-09-04T14:06:12.611Z,20.10
2017-09-04T14:08:56.692Z,20.20
2017-09-04T14:11:30.508Z,20.20
2017-09-04T14:14:04.540Z,20.20
2017-09-04T14:16:38.479Z,20.20
2017-09-04T14:19:06.915Z,20.10
2017-09-04T14:21:35.269Z,20.10
2017-09-04T14:24:03.587Z,20.00
2017-09-04T14:26:31.911Z,20.00
2017-09-04T14:29:00.215Z,19.90
2017-09-04T14:31:28.554Z,19.70
2017-09-04T14:33:56.873Z,19.60
2017-09-04T14:36:25.204Z,19.40
2017-09-04T14:38:53.516Z,19.20
2017-09-04T14:41:21.076Z,19.20
2017-09-04T14:43:55.120Z,19.00
2017-09-04T14:46:38.345Z,18.90
2017-09-04T14:49:06.651Z,18.90
2017-09-04T14:51:34.987Z,18.90
2017-09-04T14:54:03.313Z,18.90
2017-09-04T14:56:31.647Z,18.90
2017-09-04T14:58:59.960Z,18.90
2017-09-04T15:01:28.304Z,18.80
2017-09-04T15:03:56.621Z,18.80
2017-09-04T15:06:24.977Z,18.80
2017-09-04T15:08:53.287Z,18.80
2017-09-04T15:11:21.595Z,18.80
2017-09-04T15:13:49.924Z,18.70
2017-09-04T15:16:18.241Z,18.70
2017-09-04T15:18:46.579Z,18.60
2017-09-04T15:21:14.887Z,18.30
2017-09-04T15:23:43.231Z,18.20
2017-09-04T15:26:11.543Z,18.10
2017-09-04T15:28:39.883Z,18.00
2017-09-04T15:31:08.196Z,18.00
2017-09-04T15:33:36.533Z,18.00
2017-09-04T15:36:04.844Z,18.00
2017-09-04T15:38:33.192Z,18.10
2017-09-04T15:41:01.508Z,18.00
2017-09-04T15:43:29.920Z,18.10
2017-09-04T15:45:58.396Z,18.20
2017-09-04T15:48:26.712Z,18.20
2017-09-04T15:50:55.056Z,18.20
2017-09-04T15:53:23.372Z,18.30
2017-09-04T15:55:51.705Z,18.30
2017-09-04T15:58:20.022Z,18.30
2017-09-04T16:00:47.597Z,18.30
2017-09-04T16:03:15.912Z,18.30
2017-09-04T16:05:50.755Z,18.30
2017-09-04T16:08:21.681Z,18.40
2017-09-04T16:10:50.023Z,18.40
2017-09-04T16:13:18.323Z,18.50
2017-09-04T16:16:03.460Z,18.60
2017-09-04T16:18:46.659Z,18.80
2017-09-04T16:21:17.545Z,18.70
2017-09-04T16:23:57.576Z,18.70
2017-09-04T16:26:26.555Z,18.70
2017-09-04T16:29:00.524Z,18.80
2017-09-04T16:31:31.444Z,18.90
2017-09-04T16:34:14.645Z,19.00
2017-09-04T16:36:45.628Z,18.90
2017-09-04T16:39:13.939Z,18.90
2017-09-04T16:41:42.873Z,18.90
2017-09-04T16:44:14.151Z,18.80
2017-09-04T16:46:58.295Z,18.70
2017-09-04T16:49:39.351Z,18.60
2017-09-04T16:52:10.313Z,18.50
2017-09-04T16:54:50.465Z,18.40
2017-09-04T16:57:20.589Z,18.20
2017-09-04T16:59:48.900Z,18.10
2017-09-04T17:02:17.231Z,18.00
2017-09-04T17:04:45.552Z,17.80
2017-09-04T17:07:13.887Z,17.70
2017-09-04T17:09:42.201Z,17.50
2017-09-04T17:12:26.202Z,17.40
2017-09-04T17:14:55.292Z,17.30
2017-09-04T17:17:28.298Z,17.20
2017-09-04T17:20:11.497Z,17.10
2017-09-04T17:22:42.334Z,17.10
2017-09-04T17:25:11.461Z,16.90
2017-09-04T17:27:39.802Z,16.90
2017-09-04T17:30:08.144Z,16.90
2017-09-04T17:32:36.461Z,16.90
2017-09-04T17:35:04.794Z,16.90
2017-09-04T17:37:33.108Z,16.90
2017-09-04T17:40:01.442Z,16.80
2017-09-04T17:42:29.750Z,16.80
2017-09-04T17:44:58.080Z,16.80
2017-09-04T17:47:26.392Z,16.70
2017-09-04T17:49:54.745Z,16.70
2017-09-04T17:52:23.055Z,16.80
2017-09-04T17:54:51.364Z,16.80
2017-09-04T17:57:19.706Z,16.80
2017-09-04T17:59:48.017Z,16.70
2017-09-04T18:02:16.356Z,16.70
2017-09-04T18:04:44.669Z,16.60
2017-09-04T18:07:13.004Z,16.50
2017-09-04T18:09:41.331Z,16.50
2017-09-04T18:12:09.661Z,16.40
2017-09-04T18:14:37.981Z,16.40
2017-09-04T18:17:06.332Z,16.30
2017-09-04T18:19:34.644Z,16.30
2017-09-04T18:22:02.967Z,16.30
2017-09-04T18:24:31.303Z,16.20
2017-09-04T18:26:59.629Z,16.20
2017-09-04T18:29:27.959Z,16.10
2017-09-04T18:31:56.281Z,16.10
2017-09-04T18:34:24.620Z,16.00
2017-09-04T18:36:52.932Z,16.00
2017-09-04T18:39:21.303Z,16.00
2017-09-04T18:41:49.619Z,16.00
2017-09-04T18:44:17.982Z,15.90
2017-09-04T18:46:46.298Z,16.00
2017-09-04T18:49:14.607Z,15.90
2017-09-04T18:51:42.944Z,15.90
2017-09-04T18:54:11.256Z,15.90
2017-09-04T18:56:39.588Z,15.90
2017-09-04T18:59:07.902Z,15.90
2017-09-04T19:01:36.234Z,15.90
2017-09-04T19:04:04.548Z,15.90
2017-09-04T19:06:32.901Z,15.90
2017-09-04T19:09:01.215Z,15.90
2017-09-04T19:11:29.560Z,15.90
2017-09-04T19:13:57.872Z,15.90
2017-09-04T19:16:26.187Z,15.80
2017-09-04T19:18:54.521Z,15.80
2017-09-04T19:21:22.839Z,15.80
2017-09-04T19:23:51.172Z,15.80
2017-09-04T19:26:19.487Z,15.80
2017-09-04T19:28:47.823Z,15.80
2017-09-04T19:31:16.141Z,15.80
2017-09-04T19:33:44.480Z,15.80
2017-09-04T19:36:12.792Z,15.80
2017-09-04T19:38:41.141Z,15.80
2017-09-04T19:41:09.454Z,15.80
2017-09-04T19:43:37.808Z,15.80
2017-09-04T19:46:06.124Z,15.80
2017-09-04T19:48:34.442Z,15.80
2017-09-04T19:51:02.777Z,15.80
2017-09-04T19:53:31.096Z,15.80
2017-09-04T19:55:59.438Z,15.80
2017-09-04T19:58:27.749Z,15.80
2017-09-04T20:00:56.085Z,15.80
2017-09-04T20:03:24.404Z,15.80
2017-09-04T20:05:52.735Z,15.80
2017-09-04T20:08:21.048Z,15.80
2017-09-04T20:10:49.407Z,15.80
2017-09-04T20:13:17.721Z,15.70
2017-09-04T20:15:46.027Z,15.80
2017-09-04T20:18:14.364Z,15.80
2017-09-04T20:20:42.680Z,15.70
2017-09-04T20:23:11.011Z,15.70
2017-09-04T20:25:39.323Z,15.70
2017-09-04T20:28:07.656Z,15.80
2017-09-04T20:30:35.975Z,15.80
2017-09-04T20:33:04.311Z,15.80
2017-09-04T20:35:32.640Z,15.80
2017-09-04T20:38:00.995Z,15.80
2017-09-04T20:40:29.319Z,15.80
2017-09-04T20:42:57.629Z,15.80
2017-09-04T20:45:25.959Z,15.80
2017-09-04T20:47:54.275Z,15.90
2017-09-04T20:50:22.611Z,15.90
2017-09-04T20:52:50.927Z,15.90
2017-09-04T20:55:19.263Z,15.90
2017-09-04T20:57:47.575Z,15.90
2017-09-04T21:00:15.908Z,15.90
2017-09-04T21:02:44.231Z,15.90
2017-09-04T21:05:12.583Z,15.90
2017-09-04T21:07:40.900Z,15.90
2017-09-04T21:10:09.217Z,16.00
2017-09-04T21:12:37.559Z,16.00
2017-09-04T21:15:05.875Z,16.00
2017-09-04T21:17:34.212Z,16.00
2017-09-04T21:20:02.531Z,16.00
2017-09-04T21:22:30.863Z,16.00
2017-09-04T21:24:59.182Z,15.90
2017-09-04T21:27:27.517Z,15.90
2017-09-04T21:29:55.832Z,15.90
2017-09-04T21:32:24.205Z,15.90
2017-09-04T21:34:52.532Z,16.00
2017-09-04T21:37:20.860Z,15.90
2017-09-04T21:39:49.200Z,15.90
2017-09-04T21:42:17.516Z,15.90
2017-09-04T21:44:45.860Z,15.90
2017-09-04T21:47:14.177Z,15.90
2017-09-04T21:49:42.519Z,15.90
2017-09-04T21:52:10.835Z,15.90
2017-09-04T21:54:39.200Z,15.90
2017-09-04T21:57:07.512Z,15.90
2017-09-04T21:59:35.820Z,15.90
2017-09-04T22:02:04.151Z,15.90
2017-09-04T22:04:31.704Z,15.90
2017-09-04T22:07:00.045Z,15.90
2017-09-04T22:09:28.360Z,15.90
2017-09-04T22:11:56.701Z,15.90
2017-09-04T22:14:25.068Z,15.90
2017-09-04T22:16:53.407Z,15.90
2017-09-04T22:19:21.727Z,15.90
2017-09-04T22:21:50.068Z,15.90
2017-09-04T22:24:18.391Z,15.90
2017-09-04T22:26:46.743Z,15.90
2017-09-04T22:29:15.056Z,15.90
2017-09-04T22:31:42.607Z,15.90
2017-09-04T22:34:10.949Z,15.90
2017-09-04T22:36:39.263Z,15.90
2017-09-04T22:39:07.596Z,15.90
2017-09-04T22:41:35.916Z,15.90
2017-09-04T22:44:04.255Z,15.90
2017-09-04T22:46:32.564Z,16.00
2017-09-04T22:49:00.914Z,15.90
2017-09-04T22:51:29.240Z,15.90
2017-09-04T22:53:57.591Z,15.90
2017-09-04T22:56:25.148Z,15.90
2017-09-04T22:58:53.464Z,15.90
2017-09-04T23:01:21.807Z,15.90
2017-09-04T23:03:50.133Z,15.90
2017-09-04T23:06:18.465Z,15.90
2017-09-04T23:08:46.775Z,15.90
2017-09-04T23:11:15.115Z,16.00
2017-09-04T23:13:43.443Z,16.00
2017-09-04T23:16:11.790Z,16.00
2017-09-04T23:18:40.113Z,16.00
2017-09-04T23:21:08.464Z,16.00
2017-09-04T23:23:36.780Z,15.90
2017-09-04T23:26:05.144Z,15.90
2017-09-04T23:28:33.459Z,15.90
2017-09-04T23:31:01.772Z,15.90
2017-09-04T23:33:30.107Z,15.90
2017-09-04T23:35:58.424Z,15.90
2017-09-04T23:38:26.751Z,15.90
2017-09-04T23:40:55.064Z,15.90
2017-09-04T23:43:23.403Z,15.90
2017-09-04T23:45:51.713Z,15.90
2017-09-04T23:48:20.040Z,15.90
2017-09-04T23:50:47.587Z,15.90
2017-09-04T23:53:15.935Z,15.80
2017-09-04T23:55:44.247Z,15.80
2017-09-04T23:58:12.559Z,15.80
